Hauptseite
METAR-TAF:

METAR-TAF

Flughäfen :

Tarakan, Indonesien

Breite: 03-19-36N, Länge: 117-33-56E, Höhe: 6 m

Beobachtung

Neuester Wetterbericht von vor 6 Stunden und 46 Minuten, um 13:00 UTC
Wind 2 kt aus Ost/Nordost
Temperatur 27°C
Luftfeuchtigkeit 89%
Luftdruck 1009 hPa
Sichtweite: 8000 m
Aufgelockert bewölkt in der Höhe von 1500 ft

METAR: WAQQ 181300Z 07002KT 8000 SCT015 27/25 Q1009 NOSIG

Zeit: 02:46 (19:46 UTC)

Prognose

Neuester Wetterbericht von vor 2 Stunden und 46 Minuten, um 17:00 UTC
Gültige Prognose vom 18 um 18 UTC bis 19 um 06 UTC
Wind 1 kt aus Nordost
Sichtweite: 7000 m
Aufgelockert bewölkt in der Höhe von 1500 ft
Übergehend zu
vom 19 um 00 UTC bis 19 um 02 UTC
Sichtweite 10 km oder mehr

TAF: WAQQ 181700Z 1818/1906 04001KT 7000 SCT015 BECMG 1900/1902 9999

Wetterbeobachtungen und Prognosen von mehr als 4000 Flughäfen (METAR und TAF Bericht).

Die verfügbaren Stationen werden durch gelbe und rote Markierungen auf der Karte dargestellt.

Führen Sie die Maus auf sie, um den Namen der Station zu sehen.

Darauf klicken, um die Beobachtung von Wetterbeobachtungen und Prognosen zu sehen.

Um die Karte zu ändern : klicken Sie auf den grünen Tasten mit einem schwarzen Kreuz Zum Vergrößern, auf den grünen Button mit einem Gedankenstrich zu verkleinern, oder auf die grünen Pfeile für benachbarte Karten.


METAR-TAF: